createdAt,value
2023-02-21T06:03:08.474Z,36.63
2023-02-21T06:04:09.471Z,35.69
2023-02-21T06:05:09.494Z,35.59
2023-02-21T06:06:09.523Z,35.50
2023-02-21T06:07:09.973Z,35.45
2023-02-21T06:08:11.469Z,35.40
2023-02-21T06:09:09.572Z,35.35
2023-02-21T06:13:09.530Z,35.27
2023-02-21T06:14:09.536Z,35.29
2023-02-21T06:17:09.524Z,35.25
2023-02-21T06:19:09.520Z,35.26
2023-02-21T06:21:09.487Z,35.22
2023-02-21T06:22:09.469Z,35.19
2023-02-21T06:26:09.445Z,35.25
2023-02-21T06:27:09.443Z,35.19
2023-02-21T06:29:09.432Z,35.17
2023-02-21T06:33:09.402Z,35.21
2023-02-21T06:34:09.396Z,35.23
2023-02-21T06:35:09.428Z,35.21
2023-02-21T06:39:09.357Z,35.17
2023-02-21T06:40:09.348Z,35.15
2023-02-21T06:41:09.348Z,35.15
2023-02-21T06:42:09.333Z,35.19
2023-02-21T06:43:09.327Z,35.15
2023-02-21T06:44:09.317Z,35.13
2023-02-21T06:45:09.325Z,35.18
2023-02-21T06:46:09.369Z,35.19
2023-02-21T06:47:09.344Z,35.17
2023-02-21T06:48:09.297Z,35.18
2023-02-21T06:49:09.291Z,35.15
2023-02-21T06:50:10.439Z,35.14
2023-02-21T06:51:09.310Z,35.16
2023-02-21T06:52:09.283Z,35.15
2023-02-21T06:54:09.310Z,35.13
2023-02-21T06:55:09.254Z,35.14
2023-02-21T06:56:09.259Z,35.13
2023-02-21T06:57:09.258Z,35.15
2023-02-21T06:58:09.232Z,35.14
2023-02-21T06:59:09.216Z,35.14
2023-02-21T07:00:09.205Z,35.12
2023-02-21T07:01:09.214Z,35.15
2023-02-21T07:02:09.500Z,35.14
2023-02-21T07:03:09.201Z,35.10
2023-02-21T07:04:09.187Z,35.11
2023-02-21T07:05:09.165Z,35.10
2023-02-21T07:06:09.167Z,35.11
2023-02-21T07:07:09.196Z,35.08
2023-02-21T07:08:09.161Z,35.11
2023-02-21T07:09:09.189Z,35.11
2023-02-21T07:10:09.194Z,35.09
2023-02-21T07:11:09.201Z,35.10
2023-02-21T07:12:09.216Z,35.07
2023-02-21T07:13:09.221Z,35.10
2023-02-21T07:17:09.284Z,35.05
2023-02-21T07:19:09.306Z,35.05
2023-02-21T07:20:09.342Z,35.04
2023-02-21T07:21:09.345Z,35.01
2023-02-21T07:22:09.347Z,35.01
2023-02-21T07:33:08.486Z,34.99
2023-02-21T08:07:09.983Z,34.79
2023-02-21T08:10:09.993Z,34.83
2023-02-21T08:11:10.041Z,34.82
2023-02-21T08:14:10.004Z,34.77
2023-02-21T08:15:09.990Z,34.77
2023-02-21T08:17:10.069Z,34.78
2023-02-21T08:18:11.196Z,34.76
2023-02-21T08:21:10.172Z,34.74
2023-02-21T08:22:10.179Z,34.76
2023-02-21T08:23:10.173Z,34.75
2023-02-21T08:24:10.188Z,34.76
2023-02-21T08:27:10.229Z,34.70
2023-02-21T08:29:10.232Z,34.74
2023-02-21T08:30:10.259Z,34.71
2023-02-21T08:31:10.229Z,34.72
2023-02-21T08:32:10.269Z,34.67
2023-02-21T08:33:10.243Z,34.73
2023-02-21T08:34:10.234Z,34.70
2023-02-21T08:35:09.241Z,34.70
2023-02-21T08:36:10.229Z,34.71
2023-02-21T08:37:10.268Z,34.74
2023-02-21T08:38:10.353Z,34.73
2023-02-21T08:39:10.315Z,34.72
2023-02-21T08:40:10.335Z,34.71
2023-02-21T08:41:10.341Z,34.71
2023-02-21T08:42:09.387Z,34.66
2023-02-21T08:43:10.415Z,34.77
2023-02-21T08:44:09.389Z,34.71
2023-02-21T08:45:10.401Z,34.74
2023-02-21T08:47:10.409Z,34.71
2023-02-21T08:48:10.556Z,34.75
2023-02-21T08:49:09.408Z,34.75
2023-02-21T08:50:10.433Z,34.71
2023-02-21T08:51:09.429Z,34.71
2023-02-21T08:52:10.463Z,34.70
2023-02-21T08:53:09.547Z,34.72
2023-02-21T08:54:09.592Z,34.65
2023-02-21T08:55:10.546Z,34.97
2023-02-21T08:57:10.546Z,35.87
2023-02-21T08:59:09.770Z,35.52
2023-02-21T09:00:10.608Z,35.25
2023-02-21T09:01:10.669Z,35.51
2023-02-21T09:02:10.677Z,35.51
2023-02-21T09:03:10.634Z,35.63
2023-02-21T09:04:09.649Z,35.89
2023-02-21T09:05:10.903Z,35.87
2023-02-21T09:06:10.715Z,35.90
2023-02-21T09:08:10.835Z,35.87
2023-02-21T09:09:10.826Z,35.79
2023-02-21T09:10:10.905Z,35.65
2023-02-21T09:11:09.882Z,35.99
2023-02-21T09:12:11.074Z,35.89
2023-02-21T09:13:11.010Z,35.82
2023-02-21T09:14:10.035Z,36.01
2023-02-21T09:15:10.131Z,36.08
2023-02-21T09:16:11.169Z,36.17
2023-02-21T09:17:11.154Z,35.98
2023-02-21T09:18:11.185Z,36.03
2023-02-21T09:19:11.194Z,36.08
2023-02-21T09:20:11.260Z,36.07
2023-02-21T09:21:11.293Z,36.23
2023-02-21T09:22:11.307Z,36.16
2023-02-21T09:23:11.370Z,36.17
2023-02-21T09:24:11.383Z,36.07
2023-02-21T09:25:11.379Z,36.12
2023-02-21T09:26:10.420Z,36.14
2023-02-21T09:27:10.434Z,36.15
2023-02-21T09:28:11.443Z,36.24
2023-02-21T09:29:11.459Z,36.23
2023-02-21T09:30:10.544Z,36.21
2023-02-21T09:31:11.462Z,36.23
2023-02-21T09:32:11.452Z,36.28
2023-02-21T09:33:11.431Z,36.32
2023-02-21T09:34:11.433Z,36.43
2023-02-21T09:35:11.494Z,36.32
2023-02-21T09:36:11.481Z,36.34
2023-02-21T09:37:11.477Z,36.20
2023-02-21T09:38:10.509Z,36.32
2023-02-21T09:39:11.499Z,36.35
2023-02-21T09:40:11.524Z,36.39
2023-02-21T09:41:11.550Z,36.50
2023-02-21T09:42:11.552Z,36.45
2023-02-21T09:43:10.557Z,36.46
2023-02-21T09:44:11.558Z,36.45
2023-02-21T09:45:11.582Z,36.44
2023-02-21T09:46:11.653Z,36.49
2023-02-21T09:47:11.634Z,36.42
2023-02-21T09:48:11.624Z,36.43
2023-02-21T09:49:11.635Z,36.44
2023-02-21T09:50:13.189Z,36.43
2023-02-21T09:51:10.798Z,36.45
2023-02-21T09:52:11.829Z,36.42
2023-02-21T09:53:11.838Z,36.40
2023-02-21T09:54:11.854Z,36.40
2023-02-21T09:55:11.881Z,36.47
2023-02-21T09:56:11.893Z,36.42
2023-02-21T09:57:11.913Z,36.43
2023-02-21T09:58:11.062Z,36.36
2023-02-21T09:59:10.964Z,36.38
2023-02-21T10:00:11.986Z,36.41
2023-02-21T10:01:11.036Z,36.46
2023-02-21T10:02:12.054Z,36.46
2023-02-21T10:03:12.106Z,36.47
2023-02-21T10:04:12.126Z,36.51
2023-02-21T10:05:12.165Z,36.48
2023-02-21T10:06:12.209Z,36.51
2023-02-21T10:07:12.250Z,36.50
2023-02-21T10:08:12.514Z,36.47
2023-02-21T10:09:12.343Z,36.48
2023-02-21T10:10:12.391Z,36.47
2023-02-21T10:11:12.579Z,36.49
2023-02-21T10:12:12.497Z,36.48
2023-02-21T10:13:12.553Z,36.44
2023-02-21T10:14:12.612Z,36.45
2023-02-21T10:15:11.603Z,36.42
2023-02-21T10:16:12.670Z,36.45
2023-02-21T10:17:12.703Z,36.41
2023-02-21T10:18:12.739Z,36.41
2023-02-21T10:19:12.858Z,36.42
2023-02-21T10:20:12.874Z,36.40
2023-02-21T10:21:13.163Z,36.39
2023-02-21T10:22:12.970Z,36.40
2023-02-21T10:23:12.008Z,36.37
2023-02-21T10:24:13.076Z,36.37
2023-02-21T10:25:12.096Z,36.36
2023-02-21T10:26:13.172Z,36.34
2023-02-21T10:27:13.216Z,36.35
2023-02-21T10:28:12.274Z,36.33
2023-02-21T10:29:12.337Z,36.32
2023-02-21T10:30:13.455Z,36.30
2023-02-21T10:31:13.820Z,36.30
2023-02-21T10:32:13.686Z,36.31
2023-02-21T10:33:12.565Z,36.29
2023-02-21T10:34:13.617Z,36.31
2023-02-21T10:35:12.707Z,36.31
2023-02-21T10:36:13.769Z,36.29
2023-02-21T10:37:13.882Z,36.29
2023-02-21T10:38:12.792Z,36.28
2023-02-21T10:39:12.811Z,36.25
2023-02-21T10:40:13.830Z,36.25
2023-02-21T10:41:14.288Z,36.24
2023-02-21T10:42:13.893Z,36.22
2023-02-21T10:43:13.927Z,36.20
2023-02-21T10:44:13.944Z,36.20
2023-02-21T10:45:14.010Z,36.21
2023-02-21T10:46:13.115Z,36.18
2023-02-21T10:47:14.086Z,36.17
2023-02-21T10:48:14.575Z,36.18
2023-02-21T10:49:13.207Z,36.17
2023-02-21T10:50:14.249Z,36.15
2023-02-21T10:51:14.766Z,36.15
2023-02-21T10:52:14.358Z,36.15
2023-02-21T10:53:13.604Z,36.16
2023-02-21T10:54:13.473Z,36.15
2023-02-21T10:55:30.063Z,36.14
2023-02-21T10:56:14.974Z,36.18
2023-02-21T10:57:13.535Z,36.19
2023-02-21T10:58:13.535Z,36.15
2023-02-21T10:59:13.517Z,36.14
2023-02-21T11:00:14.497Z,36.13
2023-02-21T11:01:14.910Z,36.13
2023-02-21T11:02:14.554Z,36.14
2023-02-21T11:03:13.502Z,36.12
2023-02-21T11:04:13.489Z,36.11
2023-02-21T11:05:13.500Z,36.09
2023-02-21T11:06:13.475Z,36.11
2023-02-21T11:07:14.482Z,36.10
2023-02-21T11:08:14.454Z,36.08
2023-02-21T11:09:14.455Z,36.07
2023-02-21T11:10:14.445Z,36.09
2023-02-21T11:11:13.674Z,36.08
2023-02-21T11:12:14.510Z,36.07
2023-02-21T11:13:14.570Z,36.07
2023-02-21T11:14:14.643Z,36.07
2023-02-21T11:15:14.670Z,36.07
2023-02-21T11:16:14.807Z,36.06
2023-02-21T11:17:14.392Z,36.04
2023-02-21T11:18:14.865Z,36.03
2023-02-21T11:19:14.908Z,36.04
2023-02-21T11:20:14.977Z,36.04
2023-02-21T11:21:14.429Z,36.04
2023-02-21T11:22:15.100Z,36.03
2023-02-21T11:23:15.178Z,36.01
2023-02-21T11:24:15.255Z,36.00
2023-02-21T11:25:14.328Z,36.00
2023-02-21T11:26:15.346Z,36.00
2023-02-21T11:27:14.398Z,36.00
2023-02-21T11:28:15.448Z,35.99
2023-02-21T11:29:15.467Z,35.98
2023-02-21T11:30:15.536Z,35.97
2023-02-21T11:31:15.850Z,35.96
2023-02-21T11:32:15.640Z,35.96
2023-02-21T11:33:15.650Z,35.98
2023-02-21T11:34:15.756Z,35.93
2023-02-21T11:35:14.775Z,35.95
2023-02-21T11:36:15.818Z,35.94
2023-02-21T11:37:15.861Z,35.96
2023-02-21T11:38:15.895Z,35.93
2023-02-21T11:40:16.060Z,35.93
2023-02-21T11:41:16.438Z,35.93
2023-02-21T11:42:16.099Z,35.92
2023-02-21T11:43:16.599Z,35.91
2023-02-21T11:44:16.233Z,35.91
2023-02-21T11:45:16.289Z,35.90
2023-02-21T11:47:16.500Z,35.91
2023-02-21T11:48:16.608Z,35.83
2023-02-21T11:49:16.725Z,35.97
2023-02-21T13:44:39.969Z,37.53
2023-02-21T13:45:40.006Z,37.53
2023-02-21T13:50:40.212Z,37.53
2023-02-21T13:51:40.250Z,37.54
2023-02-21T13:52:40.274Z,37.53
2023-02-21T13:53:40.300Z,37.51
2023-02-21T13:54:40.344Z,37.51
2023-02-21T13:55:40.368Z,37.50
2023-02-21T13:56:40.393Z,37.50
2023-02-21T14:00:40.704Z,37.49
2023-02-21T14:01:40.666Z,37.50
2023-02-21T14:02:40.700Z,37.52
2023-02-21T14:04:40.810Z,37.50
2023-02-21T14:05:40.826Z,37.50
2023-02-21T14:06:40.862Z,37.48
2023-02-21T14:07:40.922Z,37.46
2023-02-21T14:08:39.964Z,37.48
2023-02-21T14:09:41.027Z,37.47
2023-02-21T14:10:41.112Z,37.47
2023-02-21T14:11:40.143Z,37.41
2023-02-21T14:12:41.205Z,37.42
2023-02-21T14:14:40.295Z,37.41
2023-02-21T14:15:41.356Z,37.38
2023-02-21T14:16:41.450Z,37.38
2023-02-21T14:17:41.529Z,37.36
2023-02-21T14:18:40.453Z,37.37
2023-02-21T14:19:40.516Z,37.38
2023-02-21T14:20:41.546Z,37.33
2023-02-21T14:21:41.596Z,37.34
2023-02-21T14:22:41.648Z,37.33
2023-02-21T14:23:41.709Z,37.31
2023-02-21T14:24:41.753Z,37.30
2023-02-21T14:25:41.801Z,37.30
2023-02-21T14:26:40.864Z,37.32
2023-02-21T14:27:41.906Z,37.30
2023-02-21T14:28:41.958Z,37.29
2023-02-21T14:29:41.094Z,37.31
2023-02-21T14:30:41.099Z,37.31
2023-02-21T14:31:42.163Z,37.30
2023-02-21T14:32:41.262Z,37.27
2023-02-21T14:33:42.281Z,37.28
2023-02-21T14:34:41.294Z,37.27
2023-02-21T14:35:42.361Z,37.27
2023-02-21T14:36:42.403Z,37.29
2023-02-21T14:37:42.465Z,37.28
2023-02-21T14:38:42.523Z,37.25
2023-02-21T14:39:41.572Z,37.25
2023-02-21T14:40:42.644Z,37.25
2023-02-21T14:41:42.698Z,37.24
2023-02-21T14:42:42.753Z,37.25
2023-02-21T14:43:42.447Z,37.25
2023-02-21T14:44:41.882Z,37.22
2023-02-21T14:45:41.971Z,37.22
2023-02-21T14:46:42.022Z,37.22
2023-02-21T14:47:43.058Z,37.22
2023-02-21T14:48:43.113Z,37.25
2023-02-21T14:49:42.181Z,37.23
2023-02-21T14:50:42.219Z,37.21
2023-02-21T14:51:43.296Z,37.20
2023-02-21T14:52:42.337Z,37.22
2023-02-21T14:53:43.401Z,37.19
2023-02-21T14:54:42.471Z,37.18
2023-02-21T14:55:42.525Z,37.20
2023-02-21T14:56:43.585Z,37.20
2023-02-21T14:57:43.662Z,37.18
2023-02-21T14:58:43.800Z,37.20
2023-02-21T14:59:43.809Z,37.21
2023-02-21T15:00:43.915Z,37.18
2023-02-21T15:01:43.930Z,37.19
2023-02-21T15:02:42.979Z,37.19
2023-02-21T15:03:43.038Z,37.18
2023-02-21T15:04:44.136Z,37.19
2023-02-21T15:05:44.172Z,37.17
2023-02-21T15:06:44.201Z,37.17
2023-02-21T15:07:43.236Z,37.18
2023-02-21T15:08:44.299Z,37.15
2023-02-21T15:13:43.602Z,37.14
2023-02-21T15:18:43.883Z,37.11
2023-02-21T15:19:43.934Z,37.09
2023-02-21T15:30:44.590Z,35.64
2023-02-21T15:32:44.474Z,36.04
2023-02-21T15:34:45.557Z,35.00
2023-02-21T15:35:45.622Z,35.48
2023-02-21T15:36:44.598Z,35.77
2023-02-21T15:38:44.658Z,36.70
2023-02-21T15:41:45.708Z,36.45
2023-02-21T15:43:45.732Z,36.15
2023-02-21T15:47:45.857Z,35.87
2023-02-21T15:49:45.867Z,35.92
2023-02-21T15:50:45.867Z,35.95
2023-02-21T15:52:45.988Z,35.87
2023-02-21T15:53:45.030Z,35.84
